Oregon State Flying Club

The Oregon State Flying Club is a non-profit organization committed to providing safe and inexpensive flying to the Oregon State University and Linn-Benton Community College communities. The Club currently owns three aircraft based at the Corvallis Airport for training, travel, and recreational purposes. Founded in 1952 and incorporated in 1956 the OSFC is one of the oldest continuously active flying clubs in the United States.

News & Announcements

Newsletter

The Pilot - June 2015 edition (pdf)

Corvallis Airport Open House (pdf)

Saturday, August 15, 2015 - pancake breakfast, scenic flights, FAA safety Team seminars

Monthly Board Meeting

Next Meeting: Thursday, June 11, 6pm, at CVO

Current METAR KCVO

Raw METAR:  KCVO 031155Z 30008KT 10SM CLR 17/11 A2995 RMK AO1 10240 20170 54000

This is a report for Corvallis Municipal Automatic Weather Observing / Reporting System, United States. The report was made 23 minutes ago, at 11:55 UTC. The wind was blowing at a speed of 9.2 miles per hour (4.1 meters per second) from west/northwest (300°). The temperature was 63 °F (17 °C), with a dew-point at 52 °F (11 °C). The atmospheric pressure was 29.95 inHg (1014 hPa). The relative humidity was 67.7%. The sky was clear. The overall visibility was 10.0 miles (16.1 kilometers).